sensor_id;sensor_type;location;lat;lon;timestamp;pressure;altitude;pressure_sealevel;temperature;humidity
83664;BME280;73634;47.068;15.426;2024-01-16T00:01:04;96338.28;;;0.17;49.95
83664;BME280;73634;47.068;15.426;2024-01-16T00:03:30;96330.00;;;0.10;49.96
83664;BME280;73634;47.068;15.426;2024-01-16T00:08:32;96343.69;;;0.42;46.85
83664;BME280;73634;47.068;15.426;2024-01-16T00:10:58;96340.72;;;0.50;43.94
83664;BME280;73634;47.068;15.426;2024-01-16T00:13:23;96344.50;;;0.70;41.81
83664;BME280;73634;47.068;15.426;2024-01-16T00:15:49;96343.50;;;0.71;41.16
83664;BME280;73634;47.068;15.426;2024-01-16T00:18:15;96343.31;;;0.77;40.76
83664;BME280;73634;47.068;15.426;2024-01-16T00:20:40;96357.13;;;1.03;39.14
83664;BME280;73634;47.068;15.426;2024-01-16T00:23:05;96358.03;;;0.92;39.68
83664;BME280;73634;47.068;15.426;2024-01-16T00:25:31;96370.34;;;0.68;42.37
83664;BME280;73634;47.068;15.426;2024-01-16T00:27:56;96371.94;;;0.74;41.62
83664;BME280;73634;47.068;15.426;2024-01-16T00:32:42;96389.75;;;0.64;40.53
83664;BME280;73634;47.068;15.426;2024-01-16T00:35:08;96393.97;;;0.53;43.22
83664;BME280;73634;47.068;15.426;2024-01-16T00:37:35;96382.28;;;0.41;45.50
83664;BME280;73634;47.068;15.426;2024-01-16T00:40:01;96383.69;;;0.26;47.02
83664;BME280;73634;47.068;15.426;2024-01-16T00:42:29;96394.25;;;0.13;50.58
83664;BME280;73634;47.068;15.426;2024-01-16T00:44:54;96411.56;;;-0.11;54.15
83664;BME280;73634;47.068;15.426;2024-01-16T00:47:20;96417.69;;;-0.45;57.95
83664;BME280;73634;47.068;15.426;2024-01-16T00:49:45;96413.03;;;-0.31;57.69
83664;BME280;73634;47.068;15.426;2024-01-16T00:52:10;96415.59;;;-0.48;58.77
83664;BME280;73634;47.068;15.426;2024-01-16T00:57:32;96431.50;;;-0.75;60.68
83664;BME280;73634;47.068;15.426;2024-01-16T00:59:58;96435.50;;;-0.79;61.75
83664;BME280;73634;47.068;15.426;2024-01-16T01:02:23;96440.69;;;-0.90;62.27
83664;BME280;73634;47.068;15.426;2024-01-16T01:04:49;96453.03;;;-0.99;62.73
83664;BME280;73634;47.068;15.426;2024-01-16T01:07:14;96454.91;;;-0.94;61.40
83664;BME280;73634;47.068;15.426;2024-01-16T01:09:40;96459.00;;;-0.93;61.63
83664;BME280;73634;47.068;15.426;2024-01-16T01:12:06;96463.81;;;-1.09;62.63
83664;BME280;73634;47.068;15.426;2024-01-16T01:14:31;96465.28;;;-1.13;62.82
83664;BME280;73634;47.068;15.426;2024-01-16T01:16:57;96467.31;;;-1.26;63.59
83664;BME280;73634;47.068;15.426;2024-01-16T01:19:22;96475.78;;;-1.38;64.33
83664;BME280;73634;47.068;15.426;2024-01-16T01:22:58;96502.41;;;-1.45;65.04
83664;BME280;73634;47.068;15.426;2024-01-16T01:25:25;96495.84;;;-1.53;65.92
83664;BME280;73634;47.068;15.426;2024-01-16T01:27:51;96495.97;;;-1.59;66.61
83664;BME280;73634;47.068;15.426;2024-01-16T01:30:17;96509.63;;;-1.65;66.43
83664;BME280;73634;47.068;15.426;2024-01-16T01:32:42;96504.63;;;-1.72;67.04
83664;BME280;73634;47.068;15.426;2024-01-16T01:35:09;96516.72;;;-1.79;67.68
83664;BME280;73634;47.068;15.426;2024-01-16T01:37:35;96521.34;;;-1.88;68.08
83664;BME280;73634;47.068;15.426;2024-01-16T01:40:01;96519.78;;;-1.89;68.29
83664;BME280;73634;47.068;15.426;2024-01-16T01:42:26;96513.47;;;-1.98;68.61
83664;BME280;73634;47.068;15.426;2024-01-16T01:47:30;96518.88;;;-2.18;69.43
83664;BME280;73634;47.068;15.426;2024-01-16T01:49:56;96505.03;;;-2.10;70.05
83664;BME280;73634;47.068;15.426;2024-01-16T01:52:22;96512.47;;;-2.09;69.65
83664;BME280;73634;47.068;15.426;2024-01-16T01:54:48;96523.41;;;-2.20;70.43
83664;BME280;73634;47.068;15.426;2024-01-16T01:57:14;96520.91;;;-2.08;69.81
83664;BME280;73634;47.068;15.426;2024-01-16T01:59:39;96515.88;;;-2.15;69.97
83664;BME280;73634;47.068;15.426;2024-01-16T02:02:05;96519.44;;;-2.16;68.96
83664;BME280;73634;47.068;15.426;2024-01-16T02:04:31;96521.53;;;-2.13;69.68
83664;BME280;73634;47.068;15.426;2024-01-16T02:06:56;96526.78;;;-2.08;69.02
83664;BME280;73634;47.068;15.426;2024-01-16T02:11:55;96526.00;;;-2.08;68.54
83664;BME280;73634;47.068;15.426;2024-01-16T02:14:20;96530.75;;;-2.12;69.27
83664;BME280;73634;47.068;15.426;2024-01-16T02:16:46;96535.97;;;-2.07;68.61
83664;BME280;73634;47.068;15.426;2024-01-16T02:19:11;96550.81;;;-2.04;68.58
83664;BME280;73634;47.068;15.426;2024-01-16T02:21:44;96551.25;;;-2.07;68.61
83664;BME280;73634;47.068;15.426;2024-01-16T02:24:12;96546.47;;;-2.15;69.04
83664;BME280;73634;47.068;15.426;2024-01-16T02:26:38;96541.97;;;-2.01;65.44
83664;BME280;73634;47.068;15.426;2024-01-16T02:29:04;96547.50;;;-1.92;64.70
83664;BME280;73634;47.068;15.426;2024-01-16T02:31:30;96551.25;;;-1.95;64.85
83664;BME280;73634;47.068;15.426;2024-01-16T02:36:51;96560.34;;;-2.11;67.26
83664;BME280;73634;47.068;15.426;2024-01-16T02:39:17;96554.31;;;-2.16;66.75
83664;BME280;73634;47.068;15.426;2024-01-16T02:41:42;96557.31;;;-2.19;66.66
83664;BME280;73634;47.068;15.426;2024-01-16T02:44:08;96561.72;;;-2.26;66.74
83664;BME280;73634;47.068;15.426;2024-01-16T02:46:33;96567.66;;;-2.32;67.13
83664;BME280;73634;47.068;15.426;2024-01-16T02:48:59;96562.22;;;-2.36;66.68
83664;BME280;73634;47.068;15.426;2024-01-16T02:51:24;96570.56;;;-2.29;66.50
83664;BME280;73634;47.068;15.426;2024-01-16T02:53:50;96566.50;;;-2.18;65.39
83664;BME280;73634;47.068;15.426;2024-01-16T02:56:15;96579.81;;;-2.16;65.39
83664;BME280;73634;47.068;15.426;2024-01-16T03:01:14;96585.47;;;-2.14;65.92
83664;BME280;73634;47.068;15.426;2024-01-16T03:03:39;96576.88;;;-2.02;64.34
83664;BME280;73634;47.068;15.426;2024-01-16T03:06:05;96586.75;;;-2.23;64.80
83664;BME280;73634;47.068;15.426;2024-01-16T03:08:30;96589.88;;;-2.21;62.19
83664;BME280;73634;47.068;15.426;2024-01-16T03:10:56;96596.88;;;-2.17;62.84
83664;BME280;73634;47.068;15.426;2024-01-16T03:13:22;96600.84;;;-2.21;62.65
83664;BME280;73634;47.068;15.426;2024-01-16T03:15:47;96605.81;;;-2.26;64.27
83664;BME280;73634;47.068;15.426;2024-01-16T03:18:13;96607.31;;;-2.37;64.21
83664;BME280;73634;47.068;15.426;2024-01-16T03:20:38;96609.97;;;-2.43;64.34
83664;BME280;73634;47.068;15.426;2024-01-16T03:23:03;96601.31;;;-2.42;65.03
83664;BME280;73634;47.068;15.426;2024-01-16T03:25:29;96609.06;;;-2.37;64.84
83664;BME280;73634;47.068;15.426;2024-01-16T03:29:23;96608.97;;;-2.42;64.82
83664;BME280;73634;47.068;15.426;2024-01-16T03:31:48;96621.34;;;-2.46;63.72
83664;BME280;73634;47.068;15.426;2024-01-16T03:34:13;96623.25;;;-2.59;65.15
83664;BME280;73634;47.068;15.426;2024-01-16T03:36:39;96617.97;;;-2.58;65.81
83664;BME280;73634;47.068;15.426;2024-01-16T03:39:04;96612.38;;;-2.48;64.95
83664;BME280;73634;47.068;15.426;2024-01-16T03:41:30;96619.44;;;-2.50;65.26
83664;BME280;73634;47.068;15.426;2024-01-16T03:43:56;96625.81;;;-2.59;64.83
83664;BME280;73634;47.068;15.426;2024-01-16T03:46:22;96617.75;;;-2.56;65.05
83664;BME280;73634;47.068;15.426;2024-01-16T03:48:47;96624.97;;;-2.53;65.40
83664;BME280;73634;47.068;15.426;2024-01-16T03:51:13;96618.38;;;-2.61;64.52
83664;BME280;73634;47.068;15.426;2024-01-16T03:55:49;96636.97;;;-2.79;65.61
83664;BME280;73634;47.068;15.426;2024-01-16T03:58:15;96642.94;;;-2.85;66.43
83664;BME280;73634;47.068;15.426;2024-01-16T04:00:41;96639.41;;;-2.84;66.35
83664;BME280;73634;47.068;15.426;2024-01-16T04:03:06;96650.00;;;-2.87;67.14
83664;BME280;73634;47.068;15.426;2024-01-16T04:05:32;96651.75;;;-2.87;66.26
83664;BME280;73634;47.068;15.426;2024-01-16T04:07:58;96654.53;;;-2.89;66.24
83664;BME280;73634;47.068;15.426;2024-01-16T04:10:23;96648.81;;;-2.84;66.75
83664;BME280;73634;47.068;15.426;2024-01-16T04:12:48;96656.06;;;-2.88;65.74
83664;BME280;73634;47.068;15.426;2024-01-16T04:15:14;96660.97;;;-2.86;65.51
83664;BME280;73634;47.068;15.426;2024-01-16T04:20:15;96663.97;;;-2.96;67.01
83664;BME280;73634;47.068;15.426;2024-01-16T04:22:40;96668.13;;;-3.02;67.94
83664;BME280;73634;47.068;15.426;2024-01-16T04:25:06;96662.84;;;-3.00;67.51
83664;BME280;73634;47.068;15.426;2024-01-16T04:27:31;96668.75;;;-3.06;67.34
83664;BME280;73634;47.068;15.426;2024-01-16T04:29:57;96666.63;;;-3.09;67.16
83664;BME280;73634;47.068;15.426;2024-01-16T04:32:23;96676.66;;;-3.14;67.29
83664;BME280;73634;47.068;15.426;2024-01-16T04:34:49;96678.78;;;-3.11;66.72
83664;BME280;73634;47.068;15.426;2024-01-16T04:37:14;96679.00;;;-3.13;66.33
83664;BME280;73634;47.068;15.426;2024-01-16T04:39:39;96689.38;;;-3.14;66.04
83664;BME280;73634;47.068;15.426;2024-01-16T04:44:25;96689.16;;;-3.13;66.01
83664;BME280;73634;47.068;15.426;2024-01-16T04:46:50;96688.19;;;-3.12;65.54
83664;BME280;73634;47.068;15.426;2024-01-16T04:49:16;96691.59;;;-2.99;65.92
83664;BME280;73634;47.068;15.426;2024-01-16T04:51:41;96708.06;;;-3.02;65.83
83664;BME280;73634;47.068;15.426;2024-01-16T04:54:07;96702.09;;;-3.14;66.49
83664;BME280;73634;47.068;15.426;2024-01-16T04:56:32;96709.22;;;-3.23;66.47
83664;BME280;73634;47.068;15.426;2024-01-16T04:58:58;96708.09;;;-3.27;65.62
83664;BME280;73634;47.068;15.426;2024-01-16T05:01:23;96710.84;;;-3.28;65.13
83664;BME280;73634;47.068;15.426;2024-01-16T05:03:50;96714.38;;;-3.29;65.33
83664;BME280;73634;47.068;15.426;2024-01-16T05:06:15;96714.56;;;-3.31;65.79
83664;BME280;73634;47.068;15.426;2024-01-16T05:11:13;96725.47;;;-3.24;64.87
83664;BME280;73634;47.068;15.426;2024-01-16T05:13:38;96729.78;;;-3.24;65.00
83664;BME280;73634;47.068;15.426;2024-01-16T05:16:05;96727.13;;;-3.36;63.78
83664;BME280;73634;47.068;15.426;2024-01-16T05:18:31;96727.91;;;-3.36;64.05
83664;BME280;73634;47.068;15.426;2024-01-16T05:20:58;96729.88;;;-3.38;64.67
83664;BME280;73634;47.068;15.426;2024-01-16T05:23:23;96739.06;;;-3.37;65.12
83664;BME280;73634;47.068;15.426;2024-01-16T05:25:49;96736.28;;;-3.28;66.08
83664;BME280;73634;47.068;15.426;2024-01-16T05:28:15;96745.13;;;-3.38;66.01
83664;BME280;73634;47.068;15.426;2024-01-16T05:30:40;96742.41;;;-3.43;65.01
83664;BME280;73634;47.068;15.426;2024-01-16T05:35:37;96745.97;;;-3.50;64.81
83664;BME280;73634;47.068;15.426;2024-01-16T05:38:04;96755.84;;;-3.60;65.43
83664;BME280;73634;47.068;15.426;2024-01-16T05:40:29;96753.84;;;-3.58;64.98
83664;BME280;73634;47.068;15.426;2024-01-16T05:42:54;96749.34;;;-3.56;65.57
83664;BME280;73634;47.068;15.426;2024-01-16T05:45:21;96760.13;;;-3.61;65.19
83664;BME280;73634;47.068;15.426;2024-01-16T05:47:47;96755.84;;;-3.60;66.25
83664;BME280;73634;47.068;15.426;2024-01-16T05:50:12;96765.06;;;-3.66;65.66
83664;BME280;73634;47.068;15.426;2024-01-16T05:52:37;96767.78;;;-3.67;65.34
83664;BME280;73634;47.068;15.426;2024-01-16T05:55:03;96772.00;;;-3.55;63.52
83664;BME280;73634;47.068;15.426;2024-01-16T06:00:18;96776.53;;;-3.57;65.81
83664;BME280;73634;47.068;15.426;2024-01-16T06:02:44;96782.06;;;-3.66;65.82
83664;BME280;73634;47.068;15.426;2024-01-16T06:05:10;96779.91;;;-3.63;65.73
83664;BME280;73634;47.068;15.426;2024-01-16T06:07:35;96786.38;;;-3.67;65.29
83664;BME280;73634;47.068;15.426;2024-01-16T06:10:00;96784.81;;;-3.68;64.94
83664;BME280;73634;47.068;15.426;2024-01-16T06:12:26;96795.28;;;-3.58;64.64
83664;BME280;73634;47.068;15.426;2024-01-16T06:14:51;96791.75;;;-3.50;64.58
83664;BME280;73634;47.068;15.426;2024-01-16T06:17:16;96787.84;;;-3.53;63.97
83664;BME280;73634;47.068;15.426;2024-01-16T06:19:42;96793.19;;;-3.61;64.26
83664;BME280;73634;47.068;15.426;2024-01-16T06:24:28;96810.75;;;-3.59;63.72
83664;BME280;73634;47.068;15.426;2024-01-16T06:26:55;96807.47;;;-3.60;63.06
83664;BME280;73634;47.068;15.426;2024-01-16T06:29:20;96809.13;;;-3.47;62.81
83664;BME280;73634;47.068;15.426;2024-01-16T06:31:45;96805.41;;;-3.45;63.90
83664;BME280;73634;47.068;15.426;2024-01-16T06:34:11;96811.66;;;-3.41;62.74
83664;BME280;73634;47.068;15.426;2024-01-16T06:36:36;96821.06;;;-3.48;63.26
83664;BME280;73634;47.068;15.426;2024-01-16T06:39:01;96834.59;;;-3.54;62.94
83664;BME280;73634;47.068;15.426;2024-01-16T06:41:28;96833.09;;;-3.61;63.64
83664;BME280;73634;47.068;15.426;2024-01-16T06:43:53;96830.75;;;-3.63;63.34
83664;BME280;73634;47.068;15.426;2024-01-16T06:46:18;96830.69;;;-3.56;63.68
83664;BME280;73634;47.068;15.426;2024-01-16T06:50:24;96842.56;;;-3.44;63.99
83664;BME280;73634;47.068;15.426;2024-01-16T06:52:49;96827.22;;;-3.24;64.54
83664;BME280;73634;47.068;15.426;2024-01-16T06:55:15;96837.72;;;-3.14;63.50
83664;BME280;73634;47.068;15.426;2024-01-16T06:57:40;96851.34;;;-3.02;62.65
83664;BME280;73634;47.068;15.426;2024-01-16T07:00:06;96853.22;;;-2.84;62.09
83664;BME280;73634;47.068;15.426;2024-01-16T07:02:32;96855.28;;;-2.74;61.97
83664;BME280;73634;47.068;15.426;2024-01-16T07:04:58;96858.00;;;-2.44;61.46
83664;BME280;73634;47.068;15.426;2024-01-16T07:07:23;96854.53;;;-2.50;61.55
83664;BME280;73634;47.068;15.426;2024-01-16T07:09:49;96862.81;;;-2.36;60.07
83664;BME280;73634;47.068;15.426;2024-01-16T07:15:13;96875.34;;;-2.59;61.06
83664;BME280;73634;47.068;15.426;2024-01-16T07:17:39;96884.63;;;-2.40;59.96
83664;BME280;73634;47.068;15.426;2024-01-16T07:20:05;96882.84;;;-2.15;59.29
83664;BME280;73634;47.068;15.426;2024-01-16T07:22:30;96878.41;;;-2.01;58.01
83664;BME280;73634;47.068;15.426;2024-01-16T07:24:55;96888.16;;;-1.98;57.12
83664;BME280;73634;47.068;15.426;2024-01-16T07:27:21;96890.38;;;-1.47;56.77
83664;BME280;73634;47.068;15.426;2024-01-16T07:29:46;96898.97;;;-1.11;54.68
83664;BME280;73634;47.068;15.426;2024-01-16T07:32:12;96885.06;;;0.15;51.64
83664;BME280;73634;47.068;15.426;2024-01-16T07:34:37;96894.38;;;0.84;49.29
83664;BME280;73634;47.068;15.426;2024-01-16T07:37:03;96885.06;;;2.46;44.98
83664;BME280;73634;47.068;15.426;2024-01-16T07:42:06;96888.88;;;4.62;39.05
83664;BME280;73634;47.068;15.426;2024-01-16T07:44:31;96896.47;;;3.89;40.55
83664;BME280;73634;47.068;15.426;2024-01-16T07:46:56;96903.09;;;3.21;41.94
83664;BME280;73634;47.068;15.426;2024-01-16T07:49:22;96906.97;;;4.72;38.36
83664;BME280;73634;47.068;15.426;2024-01-16T07:51:48;96899.88;;;5.30;39.29
83664;BME280;73634;47.068;15.426;2024-01-16T07:54:14;96908.16;;;5.52;36.44
83664;BME280;73634;47.068;15.426;2024-01-16T07:56:39;96892.63;;;6.33;35.38
83664;BME280;73634;47.068;15.426;2024-01-16T07:59:05;96903.50;;;5.64;36.47
83664;BME280;73634;47.068;15.426;2024-01-16T08:01:30;96904.19;;;6.56;35.21
83664;BME280;73634;47.068;15.426;2024-01-16T08:03:56;96900.41;;;7.71;32.28
83664;BME280;73634;47.068;15.426;2024-01-16T08:08:58;96917.19;;;3.73;39.82
83664;BME280;73634;47.068;15.426;2024-01-16T08:11:23;96919.25;;;3.17;40.64
83664;BME280;73634;47.068;15.426;2024-01-16T08:13:49;96917.09;;;2.60;42.47
83664;BME280;73634;47.068;15.426;2024-01-16T08:16:14;96919.50;;;3.42;40.62
83664;BME280;73634;47.068;15.426;2024-01-16T08:18:39;96915.59;;;5.28;37.54
83664;BME280;73634;47.068;15.426;2024-01-16T08:21:05;96908.22;;;7.66;33.08
83664;BME280;73634;47.068;15.426;2024-01-16T08:23:31;96902.91;;;8.87;31.75
83664;BME280;73634;47.068;15.426;2024-01-16T08:25:56;96905.97;;;10.84;27.64
83664;BME280;73634;47.068;15.426;2024-01-16T08:28:21;96907.63;;;12.19;25.16
83664;BME280;73634;47.068;15.426;2024-01-16T08:30:49;96911.19;;;10.29;27.15
83664;BME280;73634;47.068;15.426;2024-01-16T08:35:24;96914.81;;;12.53;24.52
83664;BME280;73634;47.068;15.426;2024-01-16T08:37:50;96911.78;;;13.33;22.84
83664;BME280;73634;47.068;15.426;2024-01-16T08:40:15;96913.25;;;14.03;22.86
83664;BME280;73634;47.068;15.426;2024-01-16T08:42:40;96908.13;;;16.08;20.19
83664;BME280;73634;47.068;15.426;2024-01-16T08:45:06;96906.59;;;16.77;18.78
83664;BME280;73634;47.068;15.426;2024-01-16T08:47:31;96902.28;;;16.96;18.79
83664;BME280;73634;47.068;15.426;2024-01-16T08:49:57;96897.50;;;17.94;17.29
83664;BME280;73634;47.068;15.426;2024-01-16T08:52:22;96904.13;;;17.48;17.52
83664;BME280;73634;47.068;15.426;2024-01-16T08:54:48;96901.53;;;17.76;17.30
83664;BME280;73634;47.068;15.426;2024-01-16T08:59:45;96902.38;;;18.24;16.30
83664;BME280;73634;47.068;15.426;2024-01-16T09:02:10;96896.72;;;17.94;16.35
83664;BME280;73634;47.068;15.426;2024-01-16T09:04:36;96899.22;;;18.18;15.54
83664;BME280;73634;47.068;15.426;2024-01-16T09:07:03;96903.16;;;16.88;17.06
83664;BME280;73634;47.068;15.426;2024-01-16T09:09:29;96911.44;;;18.11;15.94
83664;BME280;73634;47.068;15.426;2024-01-16T09:11:55;96902.06;;;19.85;15.37
83664;BME280;73634;47.068;15.426;2024-01-16T09:14:20;96903.41;;;20.40;14.16
83664;BME280;73634;47.068;15.426;2024-01-16T09:16:45;96909.59;;;17.83;15.43
83664;BME280;73634;47.068;15.426;2024-01-16T09:19:11;96917.81;;;15.83;17.25
83664;BME280;73634;47.068;15.426;2024-01-16T09:24:42;96923.56;;;14.85;19.51
83664;BME280;73634;47.068;15.426;2024-01-16T09:27:07;96918.19;;;14.52;20.01
83664;BME280;73634;47.068;15.426;2024-01-16T09:29:35;96923.66;;;14.29;20.20
83664;BME280;73634;47.068;15.426;2024-01-16T09:32:00;96925.69;;;14.15;19.90
83664;BME280;73634;47.068;15.426;2024-01-16T09:34:25;96921.66;;;15.65;19.39
83664;BME280;73634;47.068;15.426;2024-01-16T09:36:51;96924.97;;;17.81;17.60
83664;BME280;73634;47.068;15.426;2024-01-16T09:39:16;96922.09;;;16.33;17.80
83664;BME280;73634;47.068;15.426;2024-01-16T09:41:42;96926.28;;;16.71;17.70
83664;BME280;73634;47.068;15.426;2024-01-16T09:44:08;96925.56;;;16.25;18.06
83664;BME280;73634;47.068;15.426;2024-01-16T09:49:08;96932.13;;;17.28;17.14
83664;BME280;73634;47.068;15.426;2024-01-16T09:51:34;96925.81;;;16.56;17.33
83664;BME280;73634;47.068;15.426;2024-01-16T09:53:59;96934.84;;;12.75;21.95
83664;BME280;73634;47.068;15.426;2024-01-16T09:56:27;96921.81;;;14.97;20.16
83664;BME280;73634;47.068;15.426;2024-01-16T09:58:58;96916.56;;;17.23;17.92
83664;BME280;73634;47.068;15.426;2024-01-16T10:01:27;96905.91;;;21.35;14.33
83664;BME280;73634;47.068;15.426;2024-01-16T10:03:53;96909.03;;;20.16;15.06
83664;BME280;73634;47.068;15.426;2024-01-16T10:06:19;96901.00;;;23.03;12.57
83664;BME280;73634;47.068;15.426;2024-01-16T10:08:46;96899.75;;;21.61;13.38
83664;BME280;73634;47.068;15.426;2024-01-16T10:11:11;96895.97;;;21.58;12.89
83664;BME280;73634;47.068;15.426;2024-01-16T10:16:13;96890.66;;;20.46;12.22
83664;BME280;73634;47.068;15.426;2024-01-16T10:18:38;96884.22;;;20.96;12.33
83664;BME280;73634;47.068;15.426;2024-01-16T10:21:04;96876.38;;;19.62;13.26
83664;BME280;73634;47.068;15.426;2024-01-16T10:23:31;96873.53;;;19.13;13.64
83664;BME280;73634;47.068;15.426;2024-01-16T10:26:06;96879.69;;;19.98;13.31
83664;BME280;73634;47.068;15.426;2024-01-16T10:28:32;96867.81;;;20.34;12.69
83664;BME280;73634;47.068;15.426;2024-01-16T10:31:04;96873.81;;;16.98;14.93
83664;BME280;73634;47.068;15.426;2024-01-16T10:33:29;96871.66;;;18.00;14.06
83664;BME280;73634;47.068;15.426;2024-01-16T10:36:15;96867.06;;;19.30;12.80
83664;BME280;73634;47.068;15.426;2024-01-16T10:38:46;96871.63;;;16.88;15.27
83664;BME280;73634;47.068;15.426;2024-01-16T10:42:23;96875.00;;;15.17;15.56
83664;BME280;73634;47.068;15.426;2024-01-16T10:44:54;96876.56;;;16.90;14.28
83664;BME280;73634;47.068;15.426;2024-01-16T10:47:21;96876.97;;;18.31;13.44
83664;BME280;73634;47.068;15.426;2024-01-16T10:49:47;96871.44;;;19.61;12.22
83664;BME280;73634;47.068;15.426;2024-01-16T10:52:13;96872.53;;;20.71;10.56
83664;BME280;73634;47.068;15.426;2024-01-16T10:54:42;96867.19;;;21.90;9.99
83664;BME280;73634;47.068;15.426;2024-01-16T10:57:11;96860.13;;;20.75;10.89
83664;BME280;73634;47.068;15.426;2024-01-16T10:59:59;96857.38;;;22.97;9.54
83664;BME280;73634;47.068;15.426;2024-01-16T11:07:47;96851.38;;;23.07;9.29
83664;BME280;73634;47.068;15.426;2024-01-16T11:10:14;96837.22;;;24.40;8.61
83664;BME280;73634;47.068;15.426;2024-01-16T11:12:40;96844.75;;;22.21;9.80
83664;BME280;73634;47.068;15.426;2024-01-16T11:15:08;96841.19;;;23.16;9.27
83664;BME280;73634;47.068;15.426;2024-01-16T11:17:34;96834.94;;;24.45;8.62
83664;BME280;73634;47.068;15.426;2024-01-16T11:20:04;96831.53;;;24.16;8.49
83664;BME280;73634;47.068;15.426;2024-01-16T11:22:38;96833.03;;;24.03;8.40
83664;BME280;73634;47.068;15.426;2024-01-16T11:27:34;96829.56;;;23.60;8.29
83664;BME280;73634;47.068;15.426;2024-01-16T11:31:57;96833.63;;;19.95;10.94
83664;BME280;73634;47.068;15.426;2024-01-16T11:37:07;96834.25;;;17.19;12.84
83664;BME280;73634;47.068;15.426;2024-01-16T11:39:34;96832.09;;;16.97;12.83
83664;BME280;73634;47.068;15.426;2024-01-16T11:42:00;96818.41;;;20.12;11.14
83664;BME280;73634;47.068;15.426;2024-01-16T11:45:00;96827.69;;;17.13;13.96
83664;BME280;73634;47.068;15.426;2024-01-16T11:47:25;96827.34;;;17.43;13.95
83664;BME280;73634;47.068;15.426;2024-01-16T11:50:07;96823.94;;;16.50;14.53
83664;BME280;73634;47.068;15.426;2024-01-16T11:52:41;96822.25;;;15.39;15.29
83664;BME280;73634;47.068;15.426;2024-01-16T12:00:44;96819.41;;;9.03;21.81
83664;BME280;73634;47.068;15.426;2024-01-16T12:03:13;96813.13;;;10.16;21.46
83664;BME280;73634;47.068;15.426;2024-01-16T12:05:41;96808.09;;;10.74;21.25
83664;BME280;73634;47.068;15.426;2024-01-16T12:08:09;96813.66;;;11.93;19.55
83664;BME280;73634;47.068;15.426;2024-01-16T12:10:46;96806.91;;;12.00;19.24
83664;BME280;73634;47.068;15.426;2024-01-16T12:13:12;96803.88;;;11.45;19.76
83664;BME280;73634;47.068;15.426;2024-01-16T12:15:38;96800.66;;;11.26;20.17
83664;BME280;73634;47.068;15.426;2024-01-16T12:21:08;96802.19;;;9.59;21.01
83664;BME280;73634;47.068;15.426;2024-01-16T12:23:34;96796.06;;;10.10;21.11
83664;BME280;73634;47.068;15.426;2024-01-16T12:26:00;96784.75;;;11.05;19.89
83664;BME280;73634;47.068;15.426;2024-01-16T12:28:28;96789.63;;;10.48;20.41
83664;BME280;73634;47.068;15.426;2024-01-16T12:30:53;96791.94;;;8.65;22.50
83664;BME280;73634;47.068;15.426;2024-01-16T12:33:22;96791.75;;;7.61;24.22
83664;BME280;73634;47.068;15.426;2024-01-16T12:35:47;96795.13;;;7.90;23.77
83664;BME280;73634;47.068;15.426;2024-01-16T12:38:14;96790.47;;;7.34;23.82
83664;BME280;73634;47.068;15.426;2024-01-16T12:40:41;96788.94;;;6.94;22.85
83664;BME280;73634;47.068;15.426;2024-01-16T12:45:39;96776.59;;;7.78;24.29
83664;BME280;73634;47.068;15.426;2024-01-16T12:48:04;96768.31;;;8.66;21.69
83664;BME280;73634;47.068;15.426;2024-01-16T12:50:31;96781.69;;;8.92;21.74
83664;BME280;73634;47.068;15.426;2024-01-16T12:53:08;96767.94;;;8.35;22.48
83664;BME280;73634;47.068;15.426;2024-01-16T12:55:34;96764.47;;;6.82;23.71
83664;BME280;73634;47.068;15.426;2024-01-16T13:00:37;96764.03;;;6.20;23.80
83664;BME280;73634;47.068;15.426;2024-01-16T13:03:04;96761.03;;;5.88;24.73
83664;BME280;73634;47.068;15.426;2024-01-16T13:05:30;96762.91;;;5.52;26.18
83664;BME280;73634;47.068;15.426;2024-01-16T13:08:05;96766.78;;;5.59;25.46
83664;BME280;73634;47.068;15.426;2024-01-16T13:12:05;96762.16;;;6.36;24.83
83664;BME280;73634;47.068;15.426;2024-01-16T13:14:31;96765.94;;;7.27;23.86
83664;BME280;73634;47.068;15.426;2024-01-16T13:16:56;96755.44;;;7.95;22.61
83664;BME280;73634;47.068;15.426;2024-01-16T13:19:22;96749.22;;;7.72;23.13
83664;BME280;73634;47.068;15.426;2024-01-16T13:21:48;96760.16;;;8.12;22.31
83664;BME280;73634;47.068;15.426;2024-01-16T13:24:13;96749.44;;;8.42;21.98
83664;BME280;73634;47.068;15.426;2024-01-16T13:26:39;96745.38;;;6.78;23.69
83664;BME280;73634;47.068;15.426;2024-01-16T13:29:05;96753.75;;;6.98;23.71
83664;BME280;73634;47.068;15.426;2024-01-16T13:31:31;96746.41;;;6.77;24.34
83664;BME280;73634;47.068;15.426;2024-01-16T13:33:57;96748.63;;;6.49;24.54
83664;BME280;73634;47.068;15.426;2024-01-16T13:37:47;96749.44;;;7.52;24.17
83664;BME280;73634;47.068;15.426;2024-01-16T13:40:13;96744.91;;;7.86;23.30
83664;BME280;73634;47.068;15.426;2024-01-16T13:42:43;96749.31;;;8.71;22.79
83664;BME280;73634;47.068;15.426;2024-01-16T13:45:08;96749.81;;;8.73;23.06
83664;BME280;73634;47.068;15.426;2024-01-16T13:47:34;96744.81;;;9.28;22.23
83664;BME280;73634;47.068;15.426;2024-01-16T13:50:04;96753.50;;;7.82;23.99
83664;BME280;73634;47.068;15.426;2024-01-16T13:52:30;96757.03;;;8.39;23.65
83664;BME280;73634;47.068;15.426;2024-01-16T13:54:56;96765.22;;;8.83;23.42
83664;BME280;73634;47.068;15.426;2024-01-16T13:57:22;96751.81;;;8.95;22.98
83664;BME280;73634;47.068;15.426;2024-01-16T13:59:48;96752.38;;;9.11;23.15
83664;BME280;73634;47.068;15.426;2024-01-16T14:04:14;96752.56;;;8.20;23.75
83664;BME280;73634;47.068;15.426;2024-01-16T14:06:40;96750.81;;;7.10;25.80
83664;BME280;73634;47.068;15.426;2024-01-16T14:09:05;96748.91;;;7.21;26.23
83664;BME280;73634;47.068;15.426;2024-01-16T14:11:34;96754.06;;;8.45;24.31
83664;BME280;73634;47.068;15.426;2024-01-16T14:13:59;96757.09;;;8.33;25.13
83664;BME280;73634;47.068;15.426;2024-01-16T14:16:28;96758.63;;;7.63;25.77
83664;BME280;73634;47.068;15.426;2024-01-16T14:18:53;96761.28;;;6.95;27.20
83664;BME280;73634;47.068;15.426;2024-01-16T14:21:19;96771.28;;;6.08;28.90